Time;durP1;ratioP1;P1;durP2;ratioP2;P2;SDS_P1;SDS_P2;PMS_P1;PMS_P2;Temp;Humidity;BMP_temperature;BMP_pressure;BME280_temperature;BME280_humidity;BME280_pressure;Samples;Min_cycle;Max_cycle;Signal;HPM_P1;HPM_P2
2023/03/15 00:03:58;;;;;;;10.10;6.70;;;;;;;8.76;75.58;98769.59;107035;1256;1016483;-75
2023/03/15 00:08:51;;;;;;;7.60;6.40;;;;;;;8.78;75.92;98768.02;107155;1256;1016240;-75
2023/03/15 00:13:46;;;;;;;10.90;7.70;;;;;;;8.76;76.19;98768.38;106970;1256;1016059;-75
2023/03/15 00:18:39;;;;;;;9.20;6.80;;;;;;;8.71;76.29;98778.09;107017;1256;1071265;-75
2023/03/15 00:23:32;;;;;;;11.30;7.30;;;;;;;8.67;76.45;98782.79;107040;1259;1017995;-75
2023/03/15 00:28:25;;;;;;;8.90;7.70;;;;;;;8.68;76.64;98792.27;106966;1257;1016496;-75
2023/03/15 00:33:18;;;;;;;9.30;7.10;;;;;;;8.71;76.34;98794.84;107127;1256;1016074;-75
2023/03/15 00:38:12;;;;;;;8.80;7.00;;;;;;;8.74;76.27;98796.21;107241;1256;1016531;-75
2023/03/15 00:43:06;;;;;;;11.60;7.70;;;;;;;8.78;76.31;98803.62;107081;1256;1070524;-75
2023/03/15 00:48:00;;;;;;;8.00;7.10;;;;;;;8.84;76.11;98811.52;107206;1255;1016370;-75
2023/03/15 00:52:53;;;;;;;9.60;6.80;;;;;;;8.86;76.08;98813.58;107094;1256;1018455;-75
2023/03/15 00:57:47;;;;;;;11.60;8.20;;;;;;;8.89;76.10;98821.16;107058;1256;1016265;-75
2023/03/15 01:02:40;;;;;;;7.70;6.80;;;;;;;8.92;76.12;98838.08;107109;1256;1018258;-75
2023/03/15 01:07:34;;;;;;;10.20;7.30;;;;;;;8.89;75.69;98853.48;107016;1256;1016410;-75
2023/03/15 01:12:32;;;;;;;5.40;4.30;;;;;;;8.73;74.86;98894.85;107034;1256;1052315;-75
2023/03/15 01:17:25;;;;;;;2.10;1.90;;;;;;;8.28;73.12;98935.02;107172;1256;1058209;-75
2023/03/15 01:22:20;;;;;;;2.40;2.20;;;;;;;7.77;72.42;98977.34;107096;1256;1016358;-75
2023/03/15 01:27:13;;;;;;;4.80;1.70;;;;;;;7.27;71.87;98993.81;107106;1256;1067663;-75
2023/03/15 01:32:07;;;;;;;1.30;1.20;;;;;;;6.79;72.06;99021.55;107110;1257;1016146;-75
2023/03/15 01:37:01;;;;;;;2.10;1.40;;;;;;;6.45;71.88;99048.20;107111;1256;1016448;-74
2023/03/15 01:42:03;;;;;;;3.10;1.00;;;;;;;6.17;71.55;99077.77;107157;1256;1058829;-75
2023/03/15 01:46:56;;;;;;;1.00;0.90;;;;;;;5.93;71.67;99094.03;106993;1255;1016459;-75
2023/03/15 01:51:55;;;;;;;2.80;1.20;;;;;;;5.72;71.80;99127.51;107127;1256;1016488;-75
2023/03/15 01:57:06;;;;;;;2.50;1.30;;;;;;;5.51;72.01;99138.09;107135;1256;1070529;-75
2023/03/15 02:02:00;;;;;;;2.10;1.90;;;;;;;5.35;72.24;99162.99;107152;1259;1051249;-76
2023/03/15 02:06:57;;;;;;;2.10;1.90;;;;;;;5.27;72.28;99193.12;107038;1256;1058251;-75
2023/03/15 02:11:53;;;;;;;4.30;2.50;;;;;;;5.22;72.43;99208.67;107122;1256;1072897;-75
2023/03/15 02:16:46;;;;;;;3.70;2.80;;;;;;;5.21;72.72;99239.92;106949;1256;1016483;-76
2023/03/15 02:21:59;;;;;;;2.10;1.50;;;;;;;5.16;72.68;99252.90;106885;1256;1186434;-75
2023/03/15 02:26:55;;;;;;;6.90;1.40;;;;;;;5.03;71.96;99266.97;107117;1256;1051279;-75
2023/03/15 02:31:49;;;;;;;2.10;1.60;;;;;;;4.92;72.05;99296.16;107153;1256;1057824;-75
2023/03/15 02:36:42;;;;;;;3.80;2.40;;;;;;;4.84;72.49;99332.59;107034;1256;1016061;-76
2023/03/15 02:41:42;;;;;;;1.90;1.70;;;;;;;4.77;72.70;99353.91;107124;1256;1016538;-75
2023/03/15 02:46:35;;;;;;;2.00;1.70;;;;;;;4.68;72.48;99376.06;107066;1256;1071366;-75
2023/03/15 02:51:30;;;;;;;2.30;1.50;;;;;;;4.58;72.46;99388.03;107084;1256;1016148;-76
2023/03/15 02:56:23;;;;;;;3.90;1.90;;;;;;;4.53;72.41;99396.88;107039;1258;1015920;-75
2023/03/15 03:01:17;;;;;;;2.00;1.40;;;;;;;4.50;72.47;99408.14;107049;1256;1016471;-75
2023/03/15 03:06:12;;;;;;;1.90;1.30;;;;;;;4.46;72.09;99421.78;107210;1255;1018358;-75
2023/03/15 03:11:05;;;;;;;2.20;1.50;;;;;;;4.46;71.92;99427.78;107011;1256;1071242;-75
2023/03/15 03:15:59;;;;;;;3.10;1.30;;;;;;;4.43;71.75;99433.55;107137;1259;1016007;-76
2023/03/15 03:20:59;;;;;;;6.20;2.00;;;;;;;4.41;71.84;99435.91;106984;1256;1058305;-75
2023/03/15 03:25:56;;;;;;;2.80;2.00;;;;;;;4.36;71.66;99457.96;106929;1257;1073588;-75
2023/03/15 03:30:50;;;;;;;2.90;1.50;;;;;;;4.35;71.70;99474.73;107008;1256;1066451;-75
2023/03/15 03:35:44;;;;;;;3.70;1.80;;;;;;;4.30;71.59;99481.81;107097;1255;1016231;-75
2023/03/15 03:40:39;;;;;;;1.00;0.90;;;;;;;4.28;71.76;99495.35;107058;1256;1016268;-75
2023/03/15 03:45:33;;;;;;;2.60;1.20;;;;;;;4.29;71.72;99520.77;107109;1256;1061515;-75
2023/03/15 03:50:27;;;;;;;2.10;1.10;;;;;;;4.31;71.76;99533.49;107042;1256;1016235;-75
2023/03/15 03:55:24;;;;;;;3.90;2.20;;;;;;;4.36;71.66;99552.13;107061;1256;1016130;-75
2023/03/15 04:00:18;;;;;;;3.40;1.00;;;;;;;4.39;71.56;99561.30;106942;1255;1070458;-75
2023/03/15 04:05:12;;;;;;;2.90;1.20;;;;;;;4.38;71.53;99555.42;107126;1256;1016040;-76
2023/03/15 04:10:05;;;;;;;2.80;1.40;;;;;;;4.38;71.52;99548.08;107062;1256;1016418;-75
2023/03/15 04:14:59;;;;;;;2.80;1.50;;;;;;;4.35;71.51;99562.91;107109;1256;1072378;-76
2023/03/15 04:20:06;;;;;;;4.60;1.50;;;;;;;4.35;71.58;99567.04;107030;1256;1065477;-76
2023/03/15 04:25:02;;;;;;;3.40;1.90;;;;;;;4.34;71.45;99567.19;107106;1256;1070277;-76
2023/03/15 04:30:28;;;;;;;4.90;2.00;;;;;;;4.32;71.44;99561.82;106908;1256;1051275;-75
2023/03/15 04:35:56;;;;;;;6.00;2.50;;;;;;;4.30;71.43;99572.06;107032;1255;1058106;-75
2023/03/15 04:41:09;;;;;;;2.90;2.50;;;;;;;4.26;71.42;99578.48;107055;1256;1073116;-75
2023/03/15 04:46:22;;;;;;;;;;;;;;;4.24;71.36;99587.70;106991;1256;1065828;-75
2023/03/15 04:51:46;;;;;;;4.40;2.10;;;;;;;4.24;71.36;99598.66;106960;1256;1071446;-75
2023/03/15 04:57:17;;;;;;;6.10;2.50;;;;;;;4.24;71.32;99611.02;107009;1256;1052543;-75
2023/03/15 05:02:38;;;;;;;4.10;2.50;;;;;;;4.25;71.14;99611.73;106922;1256;1058816;-75
2023/03/15 05:07:45;;;;;;;3.90;1.90;;;;;;;4.25;70.99;99614.50;107136;1256;1073117;-75
2023/03/15 05:12:56;;;;;;;7.40;2.70;;;;;;;4.22;70.79;99633.96;107101;1259;1065065;-75
2023/03/15 05:18:11;;;;;;;7.00;2.60;;;;;;;4.19;70.54;99643.52;107093;1256;1070894;-75
2023/03/15 05:23:26;;;;;;;11.20;2.50;;;;;;;4.18;70.41;99662.35;107008;1257;1051283;-76
2023/03/15 05:28:54;;;;;;;6.70;2.60;;;;;;;4.19;69.96;99674.21;106999;1256;1059280;-73
2023/03/15 05:34:22;;;;;;;2.90;1.90;;;;;;;4.21;70.08;99682.50;106809;1257;1072731;-75
2023/03/15 05:39:34;;;;;;;4.30;2.30;;;;;;;4.23;69.76;99687.17;107148;1256;1065527;-75
2023/03/15 05:44:38;;;;;;;4.40;2.40;;;;;;;4.25;69.56;99701.63;107058;1256;1070563;-75
2023/03/15 05:49:44;;;;;;;4.30;2.30;;;;;;;4.27;69.43;99707.00;107109;1256;1051768;-75
2023/03/15 05:55:03;;;;;;;7.90;2.50;;;;;;;4.27;69.35;99718.31;107046;1256;1059162;-76
2023/03/15 06:00:15;;;;;;;6.60;2.90;;;;;;;4.29;69.16;99739.29;106968;1256;1071672;-75
2023/03/15 06:05:08;;;;;;;3.50;3.00;;;;;;;4.34;69.11;99744.41;107154;1259;1064816;-76
2023/03/15 06:10:02;;;;;;;9.90;3.10;;;;;;;4.40;68.97;99754.52;107154;1257;1016838;-75
2023/03/15 06:14:55;;;;;;;5.70;2.90;;;;;;;4.45;69.07;99766.16;106949;1256;1017020;-75
2023/03/15 06:19:48;;;;;;;7.40;3.20;;;;;;;4.48;69.03;99773.10;107134;1256;1016460;-75
2023/03/15 06:24:41;;;;;;;6.80;4.00;;;;;;;4.51;68.81;99769.58;106980;1257;1019776;-75
2023/03/15 06:29:34;;;;;;;7.50;3.70;;;;;;;4.55;68.61;99785.48;107015;1257;1016186;-75
2023/03/15 06:34:27;;;;;;;8.30;3.60;;;;;;;4.60;68.41;99798.45;106992;1256;1016387;-75
2023/03/15 06:39:20;;;;;;;8.70;4.00;;;;;;;4.66;67.76;99804.98;107111;1256;1016508;-75
2023/03/15 06:44:13;;;;;;;5.90;4.20;;;;;;;4.80;67.77;99817.54;106978;1256;1016003;-75
2023/03/15 06:49:07;;;;;;;9.00;4.50;;;;;;;4.97;67.42;99823.79;107102;1257;1016355;-75
2023/03/15 06:54:00;;;;;;;7.20;4.30;;;;;;;5.13;67.10;99829.52;106966;1257;1016244;-75
2023/03/15 06:58:54;;;;;;;6.90;4.60;;;;;;;5.23;66.53;99847.29;107017;1255;1016172;-75
2023/03/15 07:03:47;;;;;;;7.50;4.60;;;;;;;5.37;66.25;99858.11;107061;1259;1016789;-75
2023/03/15 07:08:40;;;;;;;9.60;4.50;;;;;;;5.50;66.06;99857.73;107111;1259;1016496;-76
2023/03/15 07:13:33;;;;;;;9.40;5.40;;;;;;;5.61;65.54;99855.05;107161;1256;1016869;-76
2023/03/15 07:18:25;;;;;;;7.40;4.10;;;;;;;5.68;65.15;99864.35;107135;1257;1016478;-76
2023/03/15 07:23:19;;;;;;;9.20;3.60;;;;;;;5.73;65.05;99862.90;106920;1257;1015857;-76
2023/03/15 07:28:11;;;;;;;10.50;4.80;;;;;;;5.75;65.32;99861.58;107103;1257;1017845;-76
2023/03/15 07:33:05;;;;;;;12.40;5.30;;;;;;;5.80;65.24;99874.07;107081;1259;1016279;-76
2023/03/15 07:37:58;;;;;;;9.00;4.90;;;;;;;5.99;64.49;99875.37;106989;1257;1016333;-76
2023/03/15 07:42:51;;;;;;;9.60;5.50;;;;;;;6.31;64.01;99880.71;106977;1256;1016447;-75
2023/03/15 07:47:44;;;;;;;6.90;5.00;;;;;;;6.60;63.35;99880.10;107129;1257;1016498;-74
2023/03/15 07:52:37;;;;;;;10.30;7.20;;;;;;;6.99;62.63;99888.91;107041;1257;1015803;-75
2023/03/15 07:57:31;;;;;;;10.70;6.50;;;;;;;7.37;62.24;99904.40;107090;1259;1016487;-73
2023/03/15 08:02:24;;;;;;;10.20;5.00;;;;;;;7.48;62.08;99913.55;107143;1259;1015803;-73
2023/03/15 08:07:17;;;;;;;8.20;4.80;;;;;;;7.49;61.59;99920.14;107111;1257;1016261;-73
2023/03/15 08:12:10;;;;;;;8.00;5.80;;;;;;;7.61;61.47;99917.22;107107;1259;1016463;-73
2023/03/15 08:17:59;;;;;;;7.20;5.50;;;;;;;7.56;60.96;99932.83;107137;1257;1016306;-73
2023/03/15 08:22:53;;;;;;;13.90;8.80;;;;;;;7.35;61.62;99942.64;107037;1259;1059375;-73
2023/03/15 08:27:46;;;;;;;7.40;6.10;;;;;;;7.14;61.89;99958.98;106983;1256;1016148;-75
2023/03/15 08:32:41;;;;;;;8.30;6.20;;;;;;;7.32;61.74;99971.54;107018;1260;1016519;-73
2023/03/15 08:37:34;;;;;;;10.20;6.50;;;;;;;7.23;61.50;99976.04;107108;1257;1073208;-74
2023/03/15 08:42:27;;;;;;;10.50;6.50;;;;;;;7.05;61.42;99989.49;107008;1256;1016090;-74
2023/03/15 08:47:20;;;;;;;10.10;6.50;;;;;;;6.99;61.19;100013.16;107083;1258;1017583;-74
2023/03/15 08:52:14;;;;;;;7.60;6.10;;;;;;;6.95;61.38;100024.44;107003;1257;1016998;-74
2023/03/15 08:57:11;;;;;;;13.20;6.70;;;;;;;7.11;61.39;100032.86;107159;1259;1064308;-73
2023/03/15 09:02:05;;;;;;;8.30;5.80;;;;;;;7.40;61.05;100034.83;106952;1257;1071600;-74
2023/03/15 09:06:58;;;;;;;9.90;7.20;;;;;;;7.37;60.83;100032.67;107098;1259;1016389;-74
2023/03/15 09:11:51;;;;;;;8.60;6.10;;;;;;;7.63;60.36;100033.14;107115;1257;1016184;-73
2023/03/15 09:16:44;;;;;;;10.70;5.00;;;;;;;7.91;59.92;100037.09;107017;1257;1016446;-73
2023/03/15 09:21:37;;;;;;;8.20;4.70;;;;;;;8.12;59.36;100040.20;106992;1261;1018221;-74
2023/03/15 09:26:30;;;;;;;7.70;5.40;;;;;;;8.75;58.58;100042.53;107033;1260;1015741;-73
2023/03/15 09:31:23;;;;;;;11.20;5.80;;;;;;;9.41;57.06;100033.66;107024;1257;1016495;-75
2023/03/15 09:36:16;;;;;;;7.80;4.10;;;;;;;9.69;56.44;100043.12;107111;1257;1016160;-75
2023/03/15 09:41:31;;;;;;;7.90;5.10;;;;;;;9.50;55.89;100046.91;107056;1258;1016617;-73
2023/03/15 09:46:55;;;;;;;8.60;4.40;;;;;;;9.45;55.94;100041.65;107128;1257;1068661;-74
2023/03/15 09:52:09;;;;;;;7.30;4.40;;;;;;;9.27;55.68;100051.66;107146;1259;1070653;-74
2023/03/15 09:57:08;;;;;;;6.90;4.60;;;;;;;9.07;55.65;100051.06;107126;1258;1050948;-73
2023/03/15 10:02:14;;;;;;;8.30;5.20;;;;;;;9.93;54.63;100049.91;107121;1256;1058709;-74
2023/03/15 10:07:12;;;;;;;5.00;3.60;;;;;;;10.60;53.83;100047.13;107058;1256;1073004;-76
2023/03/15 10:12:29;;;;;;;6.70;3.50;;;;;;;11.91;51.49;100040.17;107142;1260;1064951;-74
2023/03/15 10:17:34;;;;;;;6.40;3.80;;;;;;;11.91;50.94;100035.11;107092;1257;1073247;-74
2023/03/15 10:22:36;;;;;;;5.30;3.50;;;;;;;11.54;51.28;100030.88;107136;1256;1050772;-74
2023/03/15 10:27:48;;;;;;;4.70;3.10;;;;;;;13.77;48.11;100034.12;107079;1257;1058122;-74
2023/03/15 10:32:44;;;;;;;5.00;2.40;;;;;;;15.81;46.59;100030.23;107129;1257;1072568;-74
2023/03/15 10:37:37;;;;;;;7.70;2.70;;;;;;;16.18;45.74;100033.17;107153;1257;1065014;-74
2023/03/15 10:42:32;;;;;;;4.90;3.20;;;;;;;15.06;45.96;100037.72;107144;1256;1016181;-74
2023/03/15 10:47:27;;;;;;;7.10;3.20;;;;;;;14.07;46.41;100044.63;107074;1255;1051265;-74
2023/03/15 10:52:33;;;;;;;5.50;3.10;;;;;;;13.84;46.00;100042.55;107117;1257;1058498;-74
2023/03/15 10:57:33;;;;;;;8.20;3.60;;;;;;;14.10;46.16;100041.83;107101;1259;1071586;-75
2023/03/15 11:02:26;;;;;;;7.70;3.20;;;;;;;14.74;45.17;100040.55;107046;1257;1068168;-73
2023/03/15 11:07:20;;;;;;;7.20;3.50;;;;;;;15.43;44.20;100032.73;107105;1257;1016151;-74
2023/03/15 11:12:24;;;;;;;5.40;3.00;;;;;;;16.12;43.58;100032.05;107127;1257;1015972;-75
2023/03/15 11:17:24;;;;;;;6.50;3.00;;;;;;;16.89;42.04;100040.13;106996;1259;1058673;-73
2023/03/15 11:22:17;;;;;;;7.40;3.20;;;;;;;16.76;41.97;100048.77;107039;1257;1074979;-73
2023/03/15 11:27:16;;;;;;;6.90;2.70;;;;;;;15.80;42.09;100049.11;107103;1257;1016194;-74
2023/03/15 11:32:16;;;;;;;4.00;3.10;;;;;;;14.25;42.64;100050.55;107035;1259;1071729;-73
2023/03/15 11:38:00;;;;;;;6.30;3.10;;;;;;;13.35;43.67;100059.04;107039;1257;1051105;-74
2023/03/15 11:43:39;;;;;;;5.30;3.00;;;;;;;12.69;42.82;100060.78;106496;1267;1058644;-74
2023/03/15 11:48:42;;;;;;;6.20;3.70;;;;;;;12.11;44.35;100058.61;106225;1274;1075974;-74
2023/03/15 11:53:41;;;;;;;5.00;4.10;;;;;;;11.84;44.37;100064.46;106191;1270;1067999;-74
2023/03/15 11:58:41;;;;;;;7.70;3.60;;;;;;;11.79;44.63;100068.27;106195;1270;1072946;-74
2023/03/15 12:03:41;;;;;;;6.80;3.90;;;;;;;11.56;45.09;100069.43;106214;1271;1053392;-74
2023/03/15 12:08:44;;;;;;;5.50;4.10;;;;;;;10.99;45.69;100082.22;106249;1270;1061579;-73
2023/03/15 12:13:37;;;;;;;4.40;3.20;;;;;;;10.72;46.68;100091.77;106234;1273;1072968;-73
2023/03/15 12:18:45;;;;;;;7.40;3.20;;;;;;;10.57;46.67;100090.65;106481;1267;1017121;-74
2023/03/15 12:23:40;;;;;;;6.30;3.40;;;;;;;10.43;46.68;100096.41;106776;1260;1070046;-74
2023/03/15 12:28:50;;;;;;;6.10;3.90;;;;;;;10.48;46.97;100099.41;107136;1257;1050548;-73
2023/03/15 12:33:56;;;;;;;6.60;4.00;;;;;;;10.31;47.10;100103.93;107091;1259;1058291;-73
2023/03/15 12:39:03;;;;;;;6.90;4.00;;;;;;;10.20;47.31;100112.14;107103;1257;1073816;-74
2023/03/15 12:44:18;;;;;;;9.60;4.30;;;;;;;10.03;47.55;100116.84;107075;1256;1065266;-75
2023/03/15 12:49:33;;;;;;;6.20;4.10;;;;;;;9.80;47.61;100128.02;107151;1260;1070263;-73
2023/03/15 12:54:47;;;;;;;7.20;3.90;;;;;;;9.51;46.91;100142.91;107075;1256;1050847;-74
2023/03/15 12:59:54;;;;;;;6.50;4.20;;;;;;;9.38;47.44;100148.84;107110;1260;1061346;-73
2023/03/15 13:04:48;;;;;;;9.20;4.80;;;;;;;9.22;47.58;100149.14;107140;1259;1073843;-74
2023/03/15 13:09:55;;;;;;;7.10;4.20;;;;;;;8.98;47.75;100149.66;107089;1257;1016422;-75
2023/03/15 13:15:03;;;;;;;9.00;4.80;;;;;;;8.81;48.10;100154.79;107036;1259;1071350;-74
2023/03/15 13:20:10;;;;;;;7.30;4.20;;;;;;;8.82;48.58;100159.30;107155;1259;1050915;-73
2023/03/15 13:25:12;;;;;;;5.50;4.20;;;;;;;9.01;49.00;100158.54;107117;1257;1058504;-74
2023/03/15 13:30:26;;;;;;;6.80;4.50;;;;;;;8.93;48.48;100159.61;107100;1256;1072489;-74
2023/03/15 13:35:19;;;;;;;7.00;3.90;;;;;;;8.86;48.83;100164.86;107106;1256;1065497;-74
2023/03/15 13:40:14;;;;;;;9.50;4.20;;;;;;;8.88;48.78;100175.61;107143;1259;1016206;-74
2023/03/15 13:45:14;;;;;;;5.50;4.10;;;;;;;8.84;48.91;100180.58;107128;1255;1051250;-74
2023/03/15 13:50:13;;;;;;;9.70;5.80;;;;;;;8.94;49.15;100180.55;107107;1256;1057893;-74
2023/03/15 13:55:06;;;;;;;8.10;4.70;;;;;;;9.15;49.24;100187.94;107101;1256;1073216;-74
2023/03/15 14:00:09;;;;;;;5.10;3.80;;;;;;;9.04;48.84;100197.83;107080;1259;1015832;-74
2023/03/15 14:05:06;;;;;;;6.80;4.60;;;;;;;8.70;48.92;100201.43;107067;1257;1070796;-74
2023/03/15 14:10:20;;;;;;;4.40;3.80;;;;;;;8.36;49.05;100207.39;107102;1256;1053207;-74
2023/03/15 14:15:20;;;;;;;4.20;3.50;;;;;;;8.20;49.20;100212.61;107145;1256;1057989;-74
2023/03/15 14:20:17;;;;;;;10.60;3.70;;;;;;;8.05;49.02;100214.05;107092;1257;1072380;-74
2023/03/15 14:25:23;;;;;;;5.80;3.00;;;;;;;7.98;49.25;100213.76;106876;1256;1155370;-73
2023/03/15 14:30:22;;;;;;;4.80;3.40;;;;;;;8.28;49.53;100213.29;107073;1260;1070461;-73
2023/03/15 14:35:30;;;;;;;5.60;4.00;;;;;;;8.79;49.02;100215.74;107111;1256;1051364;-73
2023/03/15 14:40:35;;;;;;;4.30;2.60;;;;;;;8.84;48.54;100218.23;107111;1256;1060478;-74
2023/03/15 14:45:30;;;;;;;5.70;3.10;;;;;;;8.60;48.36;100225.11;107043;1257;1071472;-73
2023/03/15 14:50:25;;;;;;;6.50;2.70;;;;;;;8.43;48.63;100228.44;107132;1259;1066540;-74
2023/03/15 14:55:22;;;;;;;5.70;3.20;;;;;;;8.12;48.10;100234.74;107089;1256;1069286;-73
2023/03/15 15:00:19;;;;;;;3.80;3.10;;;;;;;7.65;48.37;100242.77;107030;1256;1053241;-73
2023/03/15 15:05:35;;;;;;;6.10;4.10;;;;;;;7.34;49.11;100250.54;106953;1259;1058814;-72
2023/03/15 15:10:30;;;;;;;7.50;3.70;;;;;;;7.09;49.58;100245.84;107107;1257;1072532;-72
2023/03/15 15:15:23;;;;;;;6.80;4.10;;;;;;;6.93;49.88;100249.23;107131;1256;1065588;-73
2023/03/15 15:20:16;;;;;;;9.10;4.90;;;;;;;6.82;50.07;100248.13;107104;1256;1016364;-73
2023/03/15 15:25:16;;;;;;;6.30;4.30;;;;;;;6.79;50.29;100255.80;107067;1256;1016648;-73
2023/03/15 15:30:21;;;;;;;5.20;3.50;;;;;;;6.71;50.26;100266.44;107136;1256;1058287;-73
2023/03/15 15:35:17;;;;;;;6.20;3.50;;;;;;;6.57;50.38;100270.93;106991;1256;1072778;-72
2023/03/15 15:40:27;;;;;;;6.90;3.60;;;;;;;6.41;50.58;100278.06;107102;1256;1064939;-72
2023/03/15 15:45:21;;;;;;;5.90;4.40;;;;;;;6.32;50.85;100290.56;107092;1256;1070447;-73
2023/03/15 15:50:16;;;;;;;8.70;4.20;;;;;;;6.33;51.29;100298.84;107091;1256;1016090;-72
2023/03/15 15:55:13;;;;;;;6.70;3.70;;;;;;;6.35;51.39;100299.23;107045;1256;1059484;-72
2023/03/15 16:00:18;;;;;;;4.90;2.90;;;;;;;6.27;51.03;100308.85;107019;1256;1071694;-72
2023/03/15 16:05:13;;;;;;;6.80;3.00;;;;;;;6.13;50.93;100321.88;107081;1256;1065875;-74
2023/03/15 16:10:12;;;;;;;5.70;3.20;;;;;;;5.98;50.90;100321.26;107077;1257;1070686;-74
2023/03/15 16:15:05;;;;;;;4.70;3.10;;;;;;;5.89;51.02;100321.86;107151;1256;1050625;-72
2023/03/15 16:19:58;;;;;;;7.00;3.80;;;;;;;5.79;51.07;100330.32;107162;1256;1018187;-73
2023/03/15 16:24:54;;;;;;;7.60;3.60;;;;;;;5.69;51.33;100330.70;107080;1256;1015989;-73
2023/03/15 16:29:51;;;;;;;7.50;4.10;;;;;;;5.60;51.46;100338.15;107129;1256;1068324;-72
2023/03/15 16:34:45;;;;;;;8.40;4.40;;;;;;;5.49;51.78;100343.31;107213;1256;1071428;-72
2023/03/15 16:39:38;;;;;;;7.40;5.00;;;;;;;5.41;52.14;100345.46;107053;1256;1016273;-73
2023/03/15 16:44:31;;;;;;;10.30;5.10;;;;;;;5.29;52.44;100349.41;107212;1256;1016305;-73
2023/03/15 16:49:25;;;;;;;11.80;5.20;;;;;;;5.18;52.62;100357.79;107103;1256;1016461;-72
2023/03/15 16:54:19;;;;;;;8.20;4.40;;;;;;;5.02;53.03;100363.94;107041;1256;1018393;-72
2023/03/15 16:59:32;;;;;;;8.20;4.80;;;;;;;4.85;53.29;100377.98;107086;1257;1072945;-73
2023/03/15 17:04:24;;;;;;;5.90;4.90;;;;;;;4.71;53.83;100387.11;107191;1257;1016047;-73
2023/03/15 17:09:23;;;;;;;13.80;5.00;;;;;;;4.61;54.15;100386.42;107085;1257;1016333;-73
2023/03/15 17:14:22;;;;;;;8.40;4.70;;;;;;;4.53;54.65;100391.80;107089;1256;1071953;-73
2023/03/15 17:19:15;;;;;;;12.30;6.40;;;;;;;4.42;54.74;100397.39;106859;1259;1071834;-72
2023/03/15 17:24:10;;;;;;;49.00;28.80;;;;;;;4.29;55.25;100402.77;106922;1257;1016326;-72
2023/03/15 17:29:44;;;;;;;26.50;13.70;;;;;;;4.15;55.61;100405.84;106994;1256;1051538;-72
2023/03/15 17:34:37;;;;;;;18.90;9.10;;;;;;;4.01;55.88;100404.79;107254;1256;1059777;-72
2023/03/15 17:39:30;;;;;;;13.90;6.70;;;;;;;3.86;56.25;100406.44;106950;1256;1018848;-72
2023/03/15 17:44:23;;;;;;;10.20;5.70;;;;;;;3.73;56.88;100409.56;107014;1256;1016230;-72
2023/03/15 17:49:16;;;;;;;8.60;5.40;;;;;;;3.58;56.95;100420.77;106965;1256;1016296;-72
2023/03/15 17:54:13;;;;;;;11.10;4.50;;;;;;;3.37;57.55;100423.19;107031;1259;1018859;-72
2023/03/15 17:59:06;;;;;;;7.00;4.90;;;;;;;3.17;57.66;100430.23;107074;1257;1058054;-72
2023/03/15 18:04:00;;;;;;;6.90;4.20;;;;;;;2.98;57.96;100430.11;107055;1259;1016514;-73
2023/03/15 18:08:53;;;;;;;8.00;4.10;;;;;;;2.79;58.31;100437.67;107075;1259;1016108;-72
2023/03/15 18:13:47;;;;;;;8.70;3.90;;;;;;;2.65;58.79;100446.13;107085;1256;1016525;-72
2023/03/15 18:18:41;;;;;;;9.20;5.10;;;;;;;2.49;59.02;100446.45;107120;1255;1016485;-72
2023/03/15 18:23:35;;;;;;;7.80;4.10;;;;;;;2.35;59.14;100452.65;107092;1256;1016380;-72
2023/03/15 18:28:28;;;;;;;9.70;3.70;;;;;;;2.18;59.41;100458.55;107130;1255;1017108;-72
2023/03/15 18:33:21;;;;;;;10.40;4.40;;;;;;;2.01;59.87;100467.30;107021;1256;1018883;-72
2023/03/15 18:38:15;;;;;;;9.20;4.90;;;;;;;1.87;59.76;100470.06;107087;1255;1016456;-72
2023/03/15 18:43:13;;;;;;;8.70;4.40;;;;;;;1.69;60.00;100478.77;107021;1256;1016484;-72
2023/03/15 18:48:06;;;;;;;10.70;5.70;;;;;;;1.52;60.47;100486.67;107160;1256;1058120;-72
2023/03/15 18:53:00;;;;;;;10.30;6.10;;;;;;;1.38;60.78;100487.49;107140;1256;1016150;-71
2023/03/15 18:57:55;;;;;;;8.50;5.10;;;;;;;1.25;61.12;100491.96;107008;1256;1066782;-71
2023/03/15 19:02:48;;;;;;;15.20;6.80;;;;;;;1.11;61.07;100497.25;107092;1256;1016492;-71
2023/03/15 19:07:44;;;;;;;15.40;6.50;;;;;;;1.00;61.90;100493.29;107094;1256;1016529;-71
2023/03/15 19:12:40;;;;;;;15.80;6.70;;;;;;;0.90;61.76;100494.95;107017;1256;1058497;-72
2023/03/15 19:17:33;;;;;;;11.00;7.50;;;;;;;0.81;62.27;100501.64;106997;1256;1016697;-72
2023/03/15 19:22:29;;;;;;;14.30;6.80;;;;;;;0.76;62.22;100504.67;107138;1256;1016435;-72
2023/03/15 19:27:22;;;;;;;10.40;7.30;;;;;;;0.72;62.66;100512.32;107047;1257;1071160;-72
2023/03/15 19:32:15;;;;;;;13.00;6.60;;;;;;;0.70;62.61;100511.70;107139;1256;1017213;-72
2023/03/15 19:37:09;;;;;;;14.20;7.80;;;;;;;0.67;63.12;100511.21;106905;1256;1018138;-71
2023/03/15 19:42:02;;;;;;;12.20;6.60;;;;;;;0.65;63.15;100513.96;107112;1256;1016406;-71
2023/03/15 19:46:55;;;;;;;12.90;7.80;;;;;;;0.58;63.23;100522.29;107033;1256;1016463;-71
2023/03/15 19:51:48;;;;;;;13.00;7.90;;;;;;;0.51;63.43;100525.29;107037;1256;1016327;-72
2023/03/15 19:56:42;;;;;;;14.10;8.90;;;;;;;0.43;63.83;100526.91;107016;1256;1016477;-72
2023/03/15 20:01:34;;;;;;;11.90;7.30;;;;;;;0.35;63.64;100527.52;107170;1255;1016342;-72
2023/03/15 20:06:28;;;;;;;7.20;6.00;;;;;;;0.26;64.06;100528.21;107061;1256;1016138;-72
2023/03/15 20:11:23;;;;;;;16.00;8.80;;;;;;;0.19;64.05;100537.56;107056;1256;1016461;-71
2023/03/15 20:16:17;;;;;;;11.50;7.20;;;;;;;0.18;64.26;100538.54;107042;1256;1071067;-72
2023/03/15 20:21:13;;;;;;;19.10;8.80;;;;;;;0.18;64.47;100540.91;107057;1257;1016291;-73
2023/03/15 20:26:11;;;;;;;17.60;8.40;;;;;;;0.19;65.06;100543.70;107558;1256;1058329;-73
2023/03/15 20:31:15;;;;;;;19.40;8.40;;;;;;;0.23;65.19;100544.59;106959;1256;1075347;-72
2023/03/15 20:36:08;;;;;;;17.80;8.80;;;;;;;0.24;65.32;100548.38;107031;1257;1067857;-72
2023/03/15 20:41:01;;;;;;;14.50;9.10;;;;;;;0.20;65.27;100551.40;107044;1256;1018659;-72
2023/03/15 20:45:58;;;;;;;14.70;9.20;;;;;;;0.16;65.36;100560.39;107048;1256;1016340;-72
2023/03/15 20:50:52;;;;;;;23.30;9.70;;;;;;;0.11;65.79;100560.63;106979;1256;1058561;-72
2023/03/15 20:55:45;;;;;;;18.60;11.80;;;;;;;0.05;65.60;100564.20;106910;1256;1016464;-73
2023/03/15 21:00:39;;;;;;;16.10;9.70;;;;;;;-0.04;65.62;100563.19;106998;1256;1016464;-72
2023/03/15 21:05:33;;;;;;;14.40;9.30;;;;;;;-0.12;65.98;100564.96;107208;1256;1016374;-73
2023/03/15 21:10:26;;;;;;;18.90;11.20;;;;;;;-0.16;66.04;100566.91;107247;1256;1016376;-72
2023/03/15 21:15:19;;;;;;;20.00;11.10;;;;;;;-0.21;66.15;100572.10;107146;1256;1016531;-73
2023/03/15 21:20:12;;;;;;;22.90;10.90;;;;;;;-0.26;66.29;100574.73;106910;1256;1016542;-72
2023/03/15 21:25:07;;;;;;;14.00;10.00;;;;;;;-0.32;66.17;100580.15;107057;1256;1065408;-72
2023/03/15 21:30:00;;;;;;;15.90;10.00;;;;;;;-0.40;66.33;100584.44;107115;1257;1017006;-72
2023/03/15 21:34:53;;;;;;;17.60;10.40;;;;;;;-0.45;66.51;100586.02;107056;1256;1018127;-71
2023/03/15 21:39:46;;;;;;;20.50;10.80;;;;;;;-0.48;66.74;100584.84;107203;1256;1016421;-72
2023/03/15 21:44:40;;;;;;;18.10;12.10;;;;;;;-0.49;66.74;100594.87;107105;1256;1016978;-72
2023/03/15 21:49:33;;;;;;;19.10;10.10;;;;;;;-0.54;66.78;100595.38;107089;1255;1018913;-72
2023/03/15 21:54:26;;;;;;;14.10;9.60;;;;;;;-0.60;66.92;100595.55;106963;1256;1016528;-71
2023/03/15 21:59:26;;;;;;;17.70;10.20;;;;;;;-0.61;67.30;100599.04;107018;1257;1016248;-72
2023/03/15 22:04:19;;;;;;;16.70;9.80;;;;;;;-0.60;67.30;100604.23;107041;1259;1058108;-72
2023/03/15 22:09:12;;;;;;;18.40;9.90;;;;;;;-0.58;67.56;100611.98;106998;1256;1016923;-71
2023/03/15 22:14:05;;;;;;;15.70;10.80;;;;;;;-0.58;67.41;100619.81;107101;1256;1016535;-72
2023/03/15 22:18:59;;;;;;;14.30;11.50;;;;;;;-0.54;67.81;100619.87;107025;1256;1016279;-71
2023/03/15 22:23:51;;;;;;;18.30;11.00;;;;;;;-0.53;67.79;100624.20;106988;1256;1016194;-71
2023/03/15 22:28:44;;;;;;;16.20;10.80;;;;;;;-0.56;67.76;100632.70;106969;1256;1016004;-71
2023/03/15 22:33:37;;;;;;;22.60;13.60;;;;;;;-0.58;67.85;100638.40;107148;1256;1016518;-71
2023/03/15 22:38:36;;;;;;;20.20;12.90;;;;;;;-0.56;68.24;100639.19;107055;1257;1016379;-71